sensor_id;sensor_type;location;lat;lon;timestamp;pressure;altitude;pressure_sealevel;temperature;humidity
7966;BME280;4028;43.272;26.932;2022-10-30T00:02:05;99835.81;;;11.02;nan
7966;BME280;4028;43.272;26.932;2022-10-30T00:04:31;99843.38;;;10.85;nan
7966;BME280;4028;43.272;26.932;2022-10-30T00:06:56;99838.84;;;10.76;nan
7966;BME280;4028;43.272;26.932;2022-10-30T00:09:22;99846.63;;;10.78;nan
7966;BME280;4028;43.272;26.932;2022-10-30T00:11:47;99835.28;;;10.87;nan
7966;BME280;4028;43.272;26.932;2022-10-30T00:14:13;99840.81;;;10.84;nan
7966;BME280;4028;43.272;26.932;2022-10-30T00:16:38;99842.13;;;10.89;nan
7966;BME280;4028;43.272;26.932;2022-10-30T00:19:04;99830.38;;;10.82;nan
7966;BME280;4028;43.272;26.932;2022-10-30T00:21:29;99828.13;;;10.78;nan
7966;BME280;4028;43.272;26.932;2022-10-30T00:23:55;99823.06;;;10.75;nan
7966;BME280;4028;43.272;26.932;2022-10-30T00:26:21;99822.13;;;10.76;nan
7966;BME280;4028;43.272;26.932;2022-10-30T00:28:52;99807.53;;;10.81;nan
7966;BME280;4028;43.272;26.932;2022-10-30T00:31:18;99814.50;;;10.82;nan
7966;BME280;4028;43.272;26.932;2022-10-30T00:33:48;99805.50;;;10.74;nan
7966;BME280;4028;43.272;26.932;2022-10-30T00:36:13;99803.00;;;10.72;nan
7966;BME280;4028;43.272;26.932;2022-10-30T00:38:38;99797.78;;;10.61;nan
7966;BME280;4028;43.272;26.932;2022-10-30T00:41:04;99779.56;;;10.47;nan
7966;BME280;4028;43.272;26.932;2022-10-30T00:43:35;99801.44;;;10.70;nan
7966;BME280;4028;43.272;26.932;2022-10-30T00:46:28;99792.16;;;10.75;nan
7966;BME280;4028;43.272;26.932;2022-10-30T00:48:57;99787.50;;;10.67;nan
7966;BME280;4028;43.272;26.932;2022-10-30T00:51:24;99787.94;;;10.73;nan
7966;BME280;4028;43.272;26.932;2022-10-30T00:53:50;99781.22;;;10.68;nan
7966;BME280;4028;43.272;26.932;2022-10-30T00:56:18;99778.97;;;10.64;nan
7966;BME280;4028;43.272;26.932;2022-10-30T00:58:50;99773.81;;;10.62;nan
7966;BME280;4028;43.272;26.932;2022-10-30T01:01:21;99746.38;;;10.43;nan
7966;BME280;4028;43.272;26.932;2022-10-30T01:03:49;99767.47;;;10.54;nan
7966;BME280;4028;43.272;26.932;2022-10-30T01:06:17;99771.09;;;10.53;nan
7966;BME280;4028;43.272;26.932;2022-10-30T01:08:43;99763.53;;;10.48;nan
7966;BME280;4028;43.272;26.932;2022-10-30T01:11:10;99765.47;;;10.46;nan
7966;BME280;4028;43.272;26.932;2022-10-30T01:13:37;99769.16;;;10.34;nan
7966;BME280;4028;43.272;26.932;2022-10-30T01:24:30;99764.97;;;10.20;nan
7966;BME280;4028;43.272;26.932;2022-10-30T01:37:31;99760.34;;;10.33;nan
7966;BME280;4028;43.272;26.932;2022-10-30T01:40:11;99753.78;;;10.28;nan
7966;BME280;4028;43.272;26.932;2022-10-30T01:42:49;99761.00;;;10.26;nan
7966;BME280;4028;43.272;26.932;2022-10-30T01:53:40;99753.91;;;10.26;nan
7966;BME280;4028;43.272;26.932;2022-10-30T01:59:22;99750.97;;;10.08;nan
7966;BME280;4028;43.272;26.932;2022-10-30T02:01:50;99742.09;;;9.98;nan
7966;BME280;4028;43.272;26.932;2022-10-30T02:04:16;99747.84;;;10.03;nan
7966;BME280;4028;43.272;26.932;2022-10-30T02:06:42;99733.31;;;9.98;nan
7966;BME280;4028;43.272;26.932;2022-10-30T02:09:08;99759.25;;;10.04;nan
7966;BME280;4028;43.272;26.932;2022-10-30T02:11:34;99755.19;;;10.00;nan
7966;BME280;4028;43.272;26.932;2022-10-30T02:14:06;99756.41;;;9.96;nan
7966;BME280;4028;43.272;26.932;2022-10-30T02:16:40;99748.09;;;10.00;nan
7966;BME280;4028;43.272;26.932;2022-10-30T02:19:06;99743.69;;;9.89;nan
7966;BME280;4028;43.272;26.932;2022-10-30T02:21:32;99744.75;;;9.98;nan
7966;BME280;4028;43.272;26.932;2022-10-30T02:23:58;99743.88;;;9.98;nan
7966;BME280;4028;43.272;26.932;2022-10-30T02:26:23;99743.69;;;9.89;nan
7966;BME280;4028;43.272;26.932;2022-10-30T02:28:48;99743.41;;;9.93;nan
7966;BME280;4028;43.272;26.932;2022-10-30T02:31:14;99741.03;;;9.89;nan
7966;BME280;4028;43.272;26.932;2022-10-30T02:33:44;99741.75;;;9.92;nan
7966;BME280;4028;43.272;26.932;2022-10-30T02:36:10;99728.69;;;9.79;nan
7966;BME280;4028;43.272;26.932;2022-10-30T02:38:35;99730.38;;;9.80;nan
7966;BME280;4028;43.272;26.932;2022-10-30T02:41:00;99693.44;;;9.57;nan
7966;BME280;4028;43.272;26.932;2022-10-30T02:43:26;99730.38;;;9.80;nan
7966;BME280;4028;43.272;26.932;2022-10-30T02:45:51;99728.09;;;9.75;nan
7966;BME280;4028;43.272;26.932;2022-10-30T02:48:17;99721.13;;;9.74;nan
7966;BME280;4028;43.272;26.932;2022-10-30T02:50:42;99727.75;;;9.69;nan
7966;BME280;4028;43.272;26.932;2022-10-30T02:53:08;99714.09;;;9.63;nan
7966;BME280;4028;43.272;26.932;2022-10-30T02:55:33;99719.47;;;9.73;nan
7966;BME280;4028;43.272;26.932;2022-10-30T02:57:59;99722.59;;;9.67;nan
7966;BME280;4028;43.272;26.932;2022-10-30T03:00:24;99718.75;;;9.60;nan
7966;BME280;4028;43.272;26.932;2022-10-30T03:02:56;99711.94;;;9.57;nan
7966;BME280;4028;43.272;26.932;2022-10-30T03:05:22;99728.16;;;9.53;nan
7966;BME280;4028;43.272;26.932;2022-10-30T03:07:48;99731.88;;;9.50;nan
7966;BME280;4028;43.272;26.932;2022-10-30T03:10:16;99729.22;;;9.50;nan
7966;BME280;4028;43.272;26.932;2022-10-30T03:12:42;99727.78;;;9.46;nan
7966;BME280;4028;43.272;26.932;2022-10-30T03:15:08;99737.63;;;9.55;nan
7966;BME280;4028;43.272;26.932;2022-10-30T03:17:34;99733.56;;;9.62;nan
7966;BME280;4028;43.272;26.932;2022-10-30T03:19:59;99715.19;;;9.50;nan
7966;BME280;4028;43.272;26.932;2022-10-30T03:22:25;99731.88;;;9.50;nan
7966;BME280;4028;43.272;26.932;2022-10-30T03:24:50;99731.75;;;9.52;nan
7966;BME280;4028;43.272;26.932;2022-10-30T03:27:16;99728.41;;;9.50;nan
7966;BME280;4028;43.272;26.932;2022-10-30T03:29:41;99735.63;;;9.48;nan
7966;BME280;4028;43.272;26.932;2022-10-30T03:32:10;99731.75;;;9.52;nan
7966;BME280;4028;43.272;26.932;2022-10-30T03:34:36;99731.75;;;9.52;nan
7966;BME280;4028;43.272;26.932;2022-10-30T03:37:02;99723.09;;;9.50;nan
7966;BME280;4028;43.272;26.932;2022-10-30T03:39:28;99721.66;;;9.46;nan
7966;BME280;4028;43.272;26.932;2022-10-30T03:41:53;99722.78;;;9.43;nan
7966;BME280;4028;43.272;26.932;2022-10-30T03:44:19;99715.44;;;9.35;nan
7966;BME280;4028;43.272;26.932;2022-10-30T03:46:44;99708.00;;;9.29;nan
7966;BME280;4028;43.272;26.932;2022-10-30T03:49:09;99716.16;;;9.26;nan
7966;BME280;4028;43.272;26.932;2022-10-30T03:51:35;99716.91;;;9.28;nan
7966;BME280;4028;43.272;26.932;2022-10-30T03:54:00;99719.28;;;9.20;nan
7966;BME280;4028;43.272;26.932;2022-10-30T03:56:26;99718.31;;;9.21;nan
7966;BME280;4028;43.272;26.932;2022-10-30T03:58:51;99717.16;;;9.14;nan
7966;BME280;4028;43.272;26.932;2022-10-30T04:01:17;99712.97;;;9.11;nan
7966;BME280;4028;43.272;26.932;2022-10-30T04:03:42;99708.53;;;9.12;nan
7966;BME280;4028;43.272;26.932;2022-10-30T04:06:08;99710.91;;;9.15;nan
7966;BME280;4028;43.272;26.932;2022-10-30T04:08:34;99702.75;;;9.18;nan
7966;BME280;4028;43.272;26.932;2022-10-30T04:10:59;99704.06;;;9.24;nan
7966;BME280;4028;43.272;26.932;2022-10-30T04:13:25;99707.78;;;9.32;nan
7966;BME280;4028;43.272;26.932;2022-10-30T04:15:51;99708.00;;;9.29;nan
7966;BME280;4028;43.272;26.932;2022-10-30T04:18:17;99693.25;;;9.16;nan
7966;BME280;4028;43.272;26.932;2022-10-30T04:20:43;99705.13;;;9.21;nan
7966;BME280;4028;43.272;26.932;2022-10-30T04:23:15;99705.53;;;9.17;nan
7966;BME280;4028;43.272;26.932;2022-10-30T04:25:41;99692.66;;;8.90;nan
7966;BME280;4028;43.272;26.932;2022-10-30T04:28:07;99704.31;;;8.98;nan
7966;BME280;4028;43.272;26.932;2022-10-30T04:30:33;99707.56;;;9.02;nan
7966;BME280;4028;43.272;26.932;2022-10-30T04:33:02;99707.19;;;9.06;nan
7966;BME280;4028;43.272;26.932;2022-10-30T04:35:31;99717.28;;;9.01;nan
7966;BME280;4028;43.272;26.932;2022-10-30T04:38:00;99715.47;;;9.02;nan
7966;BME280;4028;43.272;26.932;2022-10-30T04:40:32;99720.50;;;8.94;nan
7966;BME280;4028;43.272;26.932;2022-10-30T04:42:58;99720.50;;;8.94;nan
7966;BME280;4028;43.272;26.932;2022-10-30T04:45:24;99715.34;;;8.92;nan
7966;BME280;4028;43.272;26.932;2022-10-30T04:47:49;99705.41;;;8.96;nan
7966;BME280;4028;43.272;26.932;2022-10-30T04:50:15;99703.47;;;8.87;nan
7966;BME280;4028;43.272;26.932;2022-10-30T04:52:41;99710.19;;;8.91;nan
7966;BME280;4028;43.272;26.932;2022-10-30T04:55:08;99714.63;;;8.90;nan
7966;BME280;4028;43.272;26.932;2022-10-30T04:57:33;99717.25;;;8.79;nan
7966;BME280;4028;43.272;26.932;2022-10-30T05:00:03;99714.38;;;8.82;nan
7966;BME280;4028;43.272;26.932;2022-10-30T05:02:29;99703.56;;;8.74;nan
7966;BME280;4028;43.272;26.932;2022-10-30T05:04:54;99707.03;;;8.74;nan
7966;BME280;4028;43.272;26.932;2022-10-30T05:07:19;99700.94;;;8.74;nan
7966;BME280;4028;43.272;26.932;2022-10-30T05:09:45;99706.59;;;8.80;nan
7966;BME280;4028;43.272;26.932;2022-10-30T05:12:10;99707.31;;;8.94;nan
7966;BME280;4028;43.272;26.932;2022-10-30T05:14:36;99717.88;;;8.94;nan
7966;BME280;4028;43.272;26.932;2022-10-30T05:17:02;99709.94;;;8.94;nan
7966;BME280;4028;43.272;26.932;2022-10-30T05:19:27;99709.47;;;9.00;nan
7966;BME280;4028;43.272;26.932;2022-10-30T05:21:53;99710.44;;;8.99;nan
7966;BME280;4028;43.272;26.932;2022-10-30T05:24:18;99702.88;;;8.94;nan
7966;BME280;4028;43.272;26.932;2022-10-30T05:26:44;99706.81;;;9.00;nan
7966;BME280;4028;43.272;26.932;2022-10-30T05:29:09;99709.00;;;9.17;nan
7966;BME280;4028;43.272;26.932;2022-10-30T05:31:35;99707.56;;;9.13;nan
7966;BME280;4028;43.272;26.932;2022-10-30T05:34:00;99715.81;;;9.20;nan
7966;BME280;4028;43.272;26.932;2022-10-30T05:36:26;99682.97;;;9.01;nan
7966;BME280;4028;43.272;26.932;2022-10-30T05:38:51;99710.88;;;9.26;nan
7966;BME280;4028;43.272;26.932;2022-10-30T05:41:17;99718.56;;;9.29;nan
7966;BME280;4028;43.272;26.932;2022-10-30T05:43:42;99701.06;;;9.17;nan
7966;BME280;4028;43.272;26.932;2022-10-30T05:46:08;99701.41;;;9.24;nan
7966;BME280;4028;43.272;26.932;2022-10-30T05:48:33;99715.47;;;9.24;nan
7966;BME280;4028;43.272;26.932;2022-10-30T05:50:59;99711.84;;;9.36;nan
7966;BME280;4028;43.272;26.932;2022-10-30T05:53:24;99688.44;;;9.21;nan
7966;BME280;4028;43.272;26.932;2022-10-30T05:55:50;99723.50;;;9.34;nan
7966;BME280;4028;43.272;26.932;2022-10-30T05:58:15;99731.06;;;9.38;nan
7966;BME280;4028;43.272;26.932;2022-10-30T06:00:41;99735.97;;;9.43;nan
7966;BME280;4028;43.272;26.932;2022-10-30T06:03:12;99725.66;;;9.29;nan
7966;BME280;4028;43.272;26.932;2022-10-30T06:05:38;99733.22;;;9.33;nan
7966;BME280;4028;43.272;26.932;2022-10-30T06:08:05;99726.84;;;9.25;nan
7966;BME280;4028;43.272;26.932;2022-10-30T06:10:31;99728.06;;;9.32;nan
7966;BME280;4028;43.272;26.932;2022-10-30T06:12:59;99720.72;;;9.35;nan
7966;BME280;4028;43.272;26.932;2022-10-30T06:15:25;99730.31;;;9.48;nan
7966;BME280;4028;43.272;26.932;2022-10-30T06:17:52;99730.06;;;9.51;nan
7966;BME280;4028;43.272;26.932;2022-10-30T06:20:19;99730.44;;;9.57;nan
7966;BME280;4028;43.272;26.932;2022-10-30T06:23:10;99720.44;;;9.61;nan
7966;BME280;4028;43.272;26.932;2022-10-30T06:25:36;99718.16;;;9.68;nan
7966;BME280;4028;43.272;26.932;2022-10-30T06:28:02;99724.47;;;9.76;nan
7966;BME280;4028;43.272;26.932;2022-10-30T06:30:28;99730.66;;;9.98;nan
7966;BME280;4028;43.272;26.932;2022-10-30T06:32:58;99729.53;;;10.11;nan
7966;BME280;4028;43.272;26.932;2022-10-30T06:35:25;99716.81;;;10.37;nan
7966;BME280;4028;43.272;26.932;2022-10-30T06:37:51;99726.66;;;10.98;nan
7966;BME280;4028;43.272;26.932;2022-10-30T06:40:17;99711.09;;;11.55;nan
7966;BME280;4028;43.272;26.932;2022-10-30T06:42:43;99721.19;;;12.58;nan
7966;BME280;4028;43.272;26.932;2022-10-30T06:45:10;99722.19;;;13.68;nan
7966;BME280;4028;43.272;26.932;2022-10-30T06:47:36;99711.22;;;14.61;nan
7966;BME280;4028;43.272;26.932;2022-10-30T06:50:07;99715.88;;;15.11;nan
7966;BME280;4028;43.272;26.932;2022-10-30T06:52:33;99703.13;;;15.81;nan
7966;BME280;4028;43.272;26.932;2022-10-30T06:54:58;99710.03;;;16.41;nan
7966;BME280;4028;43.272;26.932;2022-10-30T06:57:24;99712.84;;;16.72;nan
7966;BME280;4028;43.272;26.932;2022-10-30T06:59:49;99706.47;;;16.97;nan
7966;BME280;4028;43.272;26.932;2022-10-30T07:02:15;99711.69;;;17.30;nan
7966;BME280;4028;43.272;26.932;2022-10-30T07:04:40;99713.19;;;17.32;nan
7966;BME280;4028;43.272;26.932;2022-10-30T07:07:05;99713.63;;;17.44;nan
7966;BME280;4028;43.272;26.932;2022-10-30T07:09:31;99710.50;;;17.72;nan
7966;BME280;4028;43.272;26.932;2022-10-30T07:11:56;99710.44;;;18.11;nan
7966;BME280;4028;43.272;26.932;2022-10-30T07:14:23;99708.41;;;18.13;nan
7966;BME280;4028;43.272;26.932;2022-10-30T07:16:48;99708.03;;;18.16;nan
7966;BME280;4028;43.272;26.932;2022-10-30T07:19:14;99710.03;;;18.22;nan
7966;BME280;4028;43.272;26.932;2022-10-30T07:21:39;99707.09;;;18.09;nan
7966;BME280;4028;43.272;26.932;2022-10-30T07:24:05;99690.41;;;18.44;nan
7966;BME280;4028;43.272;26.932;2022-10-30T07:26:30;99694.66;;;18.91;nan
7966;BME280;4028;43.272;26.932;2022-10-30T07:28:57;99686.59;;;19.51;nan
7966;BME280;4028;43.272;26.932;2022-10-30T07:31:23;99679.19;;;19.89;nan
7966;BME280;4028;43.272;26.932;2022-10-30T07:33:49;99674.81;;;20.31;nan
7966;BME280;4028;43.272;26.932;2022-10-30T07:36:14;99677.34;;;20.60;nan
7966;BME280;4028;43.272;26.932;2022-10-30T07:38:40;99671.28;;;20.51;nan
7966;BME280;4028;43.272;26.932;2022-10-30T07:41:05;99667.31;;;20.75;nan
7966;BME280;4028;43.272;26.932;2022-10-30T07:43:31;99665.50;;;20.83;nan
7966;BME280;4028;43.272;26.932;2022-10-30T07:45:56;99664.34;;;20.98;nan
7966;BME280;4028;43.272;26.932;2022-10-30T07:48:22;99663.59;;;21.11;nan
7966;BME280;4028;43.272;26.932;2022-10-30T07:50:47;99672.47;;;21.40;nan
7966;BME280;4028;43.272;26.932;2022-10-30T07:53:13;99654.84;;;21.37;nan
7966;BME280;4028;43.272;26.932;2022-10-30T07:55:38;99669.78;;;21.40;nan
7966;BME280;4028;43.272;26.932;2022-10-30T07:58:06;99668.81;;;21.61;nan
7966;BME280;4028;43.272;26.932;2022-10-30T08:00:31;99665.75;;;21.84;nan
7966;BME280;4028;43.272;26.932;2022-10-30T08:02:57;99661.84;;;21.99;nan
7966;BME280;4028;43.272;26.932;2022-10-30T08:05:22;99653.53;;;21.94;nan
7966;BME280;4028;43.272;26.932;2022-10-30T08:07:48;99651.72;;;22.21;nan
7966;BME280;4028;43.272;26.932;2022-10-30T08:10:14;99646.88;;;21.90;nan
7966;BME280;4028;43.272;26.932;2022-10-30T08:12:39;99659.13;;;21.99;nan
7966;BME280;4028;43.272;26.932;2022-10-30T08:15:06;99648.41;;;22.26;nan
7966;BME280;4028;43.272;26.932;2022-10-30T08:17:32;99637.97;;;21.90;nan
7966;BME280;4028;43.272;26.932;2022-10-30T08:20:05;99650.84;;;21.94;nan
7966;BME280;4028;43.272;26.932;2022-10-30T08:22:31;99654.41;;;22.01;nan
7966;BME280;4028;43.272;26.932;2022-10-30T08:24:56;99651.69;;;22.08;nan
7966;BME280;4028;43.272;26.932;2022-10-30T08:27:21;99649.16;;;21.73;nan
7966;BME280;4028;43.272;26.932;2022-10-30T08:29:47;99644.34;;;21.56;nan
7966;BME280;4028;43.272;26.932;2022-10-30T08:32:12;99648.06;;;21.13;nan
7966;BME280;4028;43.272;26.932;2022-10-30T08:34:38;99652.84;;;21.11;nan
7966;BME280;4028;43.272;26.932;2022-10-30T08:37:04;99648.66;;;20.67;nan
7966;BME280;4028;43.272;26.932;2022-10-30T08:39:32;99652.78;;;20.42;nan
7966;BME280;4028;43.272;26.932;2022-10-30T08:41:58;99638.88;;;20.60;nan
7966;BME280;4028;43.272;26.932;2022-10-30T08:44:24;99633.31;;;21.02;nan
7966;BME280;4028;43.272;26.932;2022-10-30T08:46:49;99640.38;;;21.45;nan
7966;BME280;4028;43.272;26.932;2022-10-30T08:49:15;99635.28;;;21.90;nan
7966;BME280;4028;43.272;26.932;2022-10-30T08:51:40;99625.81;;;22.34;nan
7966;BME280;4028;43.272;26.932;2022-10-30T08:54:08;99619.78;;;22.38;nan
7966;BME280;4028;43.272;26.932;2022-10-30T08:56:34;99620.72;;;22.97;nan
7966;BME280;4028;43.272;26.932;2022-10-30T08:58:59;99613.38;;;23.24;nan
7966;BME280;4028;43.272;26.932;2022-10-30T09:01:25;99614.56;;;23.73;nan
7966;BME280;4028;43.272;26.932;2022-10-30T09:03:50;99612.19;;;24.15;nan
7966;BME280;4028;43.272;26.932;2022-10-30T09:06:16;99607.25;;;24.30;nan
7966;BME280;4028;43.272;26.932;2022-10-30T09:08:41;99606.94;;;24.88;nan
7966;BME280;4028;43.272;26.932;2022-10-30T09:11:07;99604.28;;;25.00;nan
7966;BME280;4028;43.272;26.932;2022-10-30T09:13:32;99592.97;;;25.03;nan
7966;BME280;4028;43.272;26.932;2022-10-30T09:16:00;99594.22;;;25.25;nan
7966;BME280;4028;43.272;26.932;2022-10-30T09:18:26;99598.69;;;25.50;nan
7966;BME280;4028;43.272;26.932;2022-10-30T09:20:52;99595.03;;;25.86;nan
7966;BME280;4028;43.272;26.932;2022-10-30T09:23:18;99574.88;;;25.93;nan
7966;BME280;4028;43.272;26.932;2022-10-30T09:25:43;99591.00;;;25.77;nan
7966;BME280;4028;43.272;26.932;2022-10-30T09:28:08;99590.75;;;25.78;nan
7966;BME280;4028;43.272;26.932;2022-10-30T09:30:34;99573.53;;;25.73;nan
7966;BME280;4028;43.272;26.932;2022-10-30T09:33:01;99578.28;;;25.77;nan
7966;BME280;4028;43.272;26.932;2022-10-30T09:35:27;99571.25;;;26.23;nan
7966;BME280;4028;43.272;26.932;2022-10-30T09:37:53;99576.56;;;26.41;nan
7966;BME280;4028;43.272;26.932;2022-10-30T09:40:25;99561.22;;;26.24;nan
7966;BME280;4028;43.272;26.932;2022-10-30T09:46:08;99558.25;;;26.84;nan
7966;BME280;4028;43.272;26.932;2022-10-30T09:51:34;99548.59;;;27.16;nan
7966;BME280;4028;43.272;26.932;2022-10-30T09:56:50;99539.19;;;27.07;nan
7966;BME280;4028;43.272;26.932;2022-10-30T10:05:02;99536.13;;;27.32;nan
7966;BME280;4028;43.272;26.932;2022-10-30T10:07:31;99524.16;;;26.76;nan
7966;BME280;4028;43.272;26.932;2022-10-30T10:10:06;99508.78;;;26.82;nan
7966;BME280;4028;43.272;26.932;2022-10-30T10:12:34;99513.47;;;26.98;nan
7966;BME280;4028;43.272;26.932;2022-10-30T10:15:10;99506.84;;;27.51;nan
7966;BME280;4028;43.272;26.932;2022-10-30T10:17:39;99503.03;;;27.81;nan
7966;BME280;4028;43.272;26.932;2022-10-30T10:20:34;99513.63;;;28.16;nan
7966;BME280;4028;43.272;26.932;2022-10-30T10:23:00;99505.03;;;28.63;nan
7966;BME280;4028;43.272;26.932;2022-10-30T10:25:29;99501.94;;;27.65;nan
7966;BME280;4028;43.272;26.932;2022-10-30T10:31:11;99488.34;;;27.82;nan
7966;BME280;4028;43.272;26.932;2022-10-30T10:39:33;99488.50;;;28.47;nan
7966;BME280;4028;43.272;26.932;2022-10-30T10:42:18;99479.16;;;29.09;nan
7966;BME280;4028;43.272;26.932;2022-10-30T10:47:56;99483.91;;;29.19;nan
7966;BME280;4028;43.272;26.932;2022-10-30T10:50:33;99482.09;;;28.81;nan
7966;BME280;4028;43.272;26.932;2022-10-30T10:54:08;99484.47;;;27.44;nan
7966;BME280;4028;43.272;26.932;2022-10-30T10:56:06;99481.75;;;27.61;nan
7966;BME280;4028;43.272;26.932;2022-10-30T10:58:48;99472.63;;;28.22;nan
7966;BME280;4028;43.272;26.932;2022-10-30T11:01:37;99468.88;;;28.67;nan
7966;BME280;4028;43.272;26.932;2022-10-30T11:04:09;99470.41;;;28.36;nan
7966;BME280;4028;43.272;26.932;2022-10-30T11:06:40;99471.88;;;28.27;nan
7966;BME280;4028;43.272;26.932;2022-10-30T11:09:16;99472.22;;;28.96;nan
7966;BME280;4028;43.272;26.932;2022-10-30T11:11:46;99465.91;;;29.50;nan
7966;BME280;4028;43.272;26.932;2022-10-30T11:14:14;99460.34;;;29.67;nan
7966;BME280;4028;43.272;26.932;2022-10-30T11:16:53;99443.91;;;29.57;nan
7966;BME280;4028;43.272;26.932;2022-10-30T11:19:21;99457.53;;;29.57;nan
7966;BME280;4028;43.272;26.932;2022-10-30T11:21:50;99460.63;;;28.84;nan
7966;BME280;4028;43.272;26.932;2022-10-30T11:24:33;99465.31;;;28.89;nan
7966;BME280;4028;43.272;26.932;2022-10-30T11:27:17;99464.13;;;28.80;nan
7966;BME280;4028;43.272;26.932;2022-10-30T11:32:27;99452.97;;;28.59;nan
7966;BME280;4028;43.272;26.932;2022-10-30T11:37:37;99454.16;;;28.41;nan
7966;BME280;4028;43.272;26.932;2022-10-30T11:40:17;99454.56;;;28.33;nan
7966;BME280;4028;43.272;26.932;2022-10-30T11:42:57;99456.56;;;28.21;nan
7966;BME280;4028;43.272;26.932;2022-10-30T11:45:25;99439.38;;;27.98;nan
7966;BME280;4028;43.272;26.932;2022-10-30T11:47:52;99440.72;;;27.45;nan
7966;BME280;4028;43.272;26.932;2022-10-30T11:50:22;99428.19;;;27.11;nan
7966;BME280;4028;43.272;26.932;2022-10-30T11:52:52;99444.34;;;27.06;nan
7966;BME280;4028;43.272;26.932;2022-10-30T11:55:22;99436.88;;;26.67;nan
7966;BME280;4028;43.272;26.932;2022-10-30T11:57:54;99422.78;;;26.42;nan
7966;BME280;4028;43.272;26.932;2022-10-30T12:00:25;99433.41;;;26.20;nan
7966;BME280;4028;43.272;26.932;2022-10-30T12:02:54;99430.03;;;26.01;nan
7966;BME280;4028;43.272;26.932;2022-10-30T12:10:34;99423.28;;;25.57;nan
7966;BME280;4028;43.272;26.932;2022-10-30T12:13:04;99416.78;;;25.58;nan
7966;BME280;4028;43.272;26.932;2022-10-30T12:15:34;99409.03;;;25.50;nan
7966;BME280;4028;43.272;26.932;2022-10-30T12:18:04;99404.91;;;25.47;nan
7966;BME280;4028;43.272;26.932;2022-10-30T12:20:32;99406.91;;;25.40;nan
7966;BME280;4028;43.272;26.932;2022-10-30T12:23:08;99394.88;;;25.24;nan
7966;BME280;4028;43.272;26.932;2022-10-30T12:25:35;99399.47;;;25.35;nan
7966;BME280;4028;43.272;26.932;2022-10-30T12:30:36;99400.03;;;25.14;nan
7966;BME280;4028;43.272;26.932;2022-10-30T12:33:10;99397.34;;;25.14;nan
7966;BME280;4028;43.272;26.932;2022-10-30T12:35:53;99403.19;;;25.11;nan
7966;BME280;4028;43.272;26.932;2022-10-30T12:38:25;99401.56;;;25.10;nan
7966;BME280;4028;43.272;26.932;2022-10-30T12:41:11;99395.78;;;25.06;nan
7966;BME280;4028;43.272;26.932;2022-10-30T12:43:41;99397.88;;;25.04;nan
7966;BME280;4028;43.272;26.932;2022-10-30T12:49:06;99390.97;;;25.08;nan
7966;BME280;4028;43.272;26.932;2022-10-30T12:57:07;99393.13;;;24.88;nan
7966;BME280;4028;43.272;26.932;2022-10-30T12:59:56;99401.03;;;24.71;nan
7966;BME280;4028;43.272;26.932;2022-10-30T13:02:49;99393.59;;;24.67;nan
7966;BME280;4028;43.272;26.932;2022-10-30T13:08:19;99403.19;;;24.32;nan
7966;BME280;4028;43.272;26.932;2022-10-30T13:10:56;99402.59;;;24.12;nan
7966;BME280;4028;43.272;26.932;2022-10-30T13:13:32;99402.31;;;24.02;nan
7966;BME280;4028;43.272;26.932;2022-10-30T13:16:02;99405.13;;;23.89;nan
7966;BME280;4028;43.272;26.932;2022-10-30T13:18:28;99409.19;;;23.79;nan
7966;BME280;4028;43.272;26.932;2022-10-30T13:23:43;99411.84;;;23.61;nan
7966;BME280;4028;43.272;26.932;2022-10-30T13:39:51;99407.75;;;23.52;nan
7966;BME280;4028;43.272;26.932;2022-10-30T13:50:34;99404.13;;;23.15;nan
7966;BME280;4028;43.272;26.932;2022-10-30T13:53:04;99408.03;;;23.19;nan
7966;BME280;4028;43.272;26.932;2022-10-30T13:55:34;99400.38;;;23.16;nan
7966;BME280;4028;43.272;26.932;2022-10-30T13:58:17;99401.91;;;23.05;nan
7966;BME280;4028;43.272;26.932;2022-10-30T14:06:44;99398.88;;;22.95;nan
7966;BME280;4028;43.272;26.932;2022-10-30T14:15:04;99396.00;;;22.83;nan
7966;BME280;4028;43.272;26.932;2022-10-30T14:17:29;99391.69;;;22.75;nan
7966;BME280;4028;43.272;26.932;2022-10-30T14:20:24;99389.22;;;22.67;nan
7966;BME280;4028;43.272;26.932;2022-10-30T14:26:10;99391.38;;;22.52;nan
7966;BME280;4028;43.272;26.932;2022-10-30T14:28:39;99383.97;;;22.47;nan
7966;BME280;4028;43.272;26.932;2022-10-30T14:31:10;99386.91;;;22.39;nan
7966;BME280;4028;43.272;26.932;2022-10-30T14:36:47;99388.19;;;22.30;nan
7966;BME280;4028;43.272;26.932;2022-10-30T14:44:15;99388.66;;;22.14;nan
7966;BME280;4028;43.272;26.932;2022-10-30T14:49:42;99386.19;;;21.99;nan
7966;BME280;4028;43.272;26.932;2022-10-30T14:54:46;99370.72;;;21.81;nan
7966;BME280;4028;43.272;26.932;2022-10-30T14:57:43;99380.66;;;21.74;nan
7966;BME280;4028;43.272;26.932;2022-10-30T15:02:54;99375.72;;;21.51;nan
7966;BME280;4028;43.272;26.932;2022-10-30T15:05:36;99379.44;;;21.43;nan
7966;BME280;4028;43.272;26.932;2022-10-30T15:08:49;99377.19;;;21.34;nan
7966;BME280;4028;43.272;26.932;2022-10-30T15:11:10;99369.09;;;21.20;nan
7966;BME280;4028;43.272;26.932;2022-10-30T15:13:45;99379.84;;;21.07;nan
7966;BME280;4028;43.272;26.932;2022-10-30T15:16:15;99372.59;;;21.01;nan
7966;BME280;4028;43.272;26.932;2022-10-30T15:18:47;99370.53;;;20.90;nan
7966;BME280;4028;43.272;26.932;2022-10-30T15:21:19;99372.56;;;20.74;nan
7966;BME280;4028;43.272;26.932;2022-10-30T15:23:49;99372.75;;;20.66;nan
7966;BME280;4028;43.272;26.932;2022-10-30T15:26:21;99379.56;;;20.62;nan
7966;BME280;4028;43.272;26.932;2022-10-30T15:28:49;99379.56;;;20.62;nan
7966;BME280;4028;43.272;26.932;2022-10-30T15:31:26;99389.25;;;20.50;nan
7966;BME280;4028;43.272;26.932;2022-10-30T15:33:52;99391.47;;;20.40;nan
7966;BME280;4028;43.272;26.932;2022-10-30T15:36:21;99387.94;;;20.33;nan
7966;BME280;4028;43.272;26.932;2022-10-30T15:39:11;99385.78;;;20.15;nan
7966;BME280;4028;43.272;26.932;2022-10-30T15:41:43;99383.91;;;20.15;nan
7966;BME280;4028;43.272;26.932;2022-10-30T15:44:15;99387.59;;;20.08;nan
7966;BME280;4028;43.272;26.932;2022-10-30T15:46:46;99391.03;;;19.95;nan
7966;BME280;4028;43.272;26.932;2022-10-30T15:49:14;99384.16;;;19.86;nan
7966;BME280;4028;43.272;26.932;2022-10-30T15:51:44;99391.16;;;19.80;nan
7966;BME280;4028;43.272;26.932;2022-10-30T15:54:13;99391.56;;;19.77;nan
7966;BME280;4028;43.272;26.932;2022-10-30T15:56:46;99384.72;;;19.74;nan
7966;BME280;4028;43.272;26.932;2022-10-30T15:59:24;99385.50;;;19.68;nan
7966;BME280;4028;43.272;26.932;2022-10-30T16:01:53;99379.06;;;19.63;nan
7966;BME280;4028;43.272;26.932;2022-10-30T16:04:21;99389.75;;;19.56;nan